createdAt,value
2022-12-13T00:01:45.148Z,47.50
2022-12-13T00:05:47.974Z,49.27
2022-12-13T00:09:50.715Z,45.67
2022-12-13T00:13:55.720Z,45.83
2022-12-13T00:17:58.435Z,50.30
2022-12-13T00:22:01.124Z,45.73
2022-12-13T00:26:05.294Z,50.37
2022-12-13T00:30:10.340Z,44.93
2022-12-13T00:34:13.036Z,49.17
2022-12-13T00:38:15.748Z,48.83
2022-12-13T00:42:18.458Z,46.30
2022-12-13T00:46:23.383Z,49.33
2022-12-13T00:50:26.196Z,48.17
2022-12-13T00:54:28.912Z,49.37
2022-12-13T00:58:31.841Z,48.10
2022-12-13T01:02:35.947Z,46.30
2022-12-13T01:06:40.405Z,46.70
2022-12-13T01:10:45.041Z,49.33
2022-12-13T01:14:53.068Z,49.40
2022-12-13T01:19:00.034Z,47.63
2022-12-13T01:23:02.799Z,52.17
2022-12-13T01:27:05.961Z,53.07
2022-12-13T01:31:10.318Z,56.63
2022-12-13T01:35:14.742Z,66.07
2022-12-13T01:39:20.598Z,58.60
2022-12-13T01:43:50.415Z,58.20
2022-12-13T01:47:56.661Z,57.50
2022-12-13T01:52:07.624Z,47.27
2022-12-13T01:56:14.611Z,50.50
2022-12-13T02:00:18.886Z,64.87
2022-12-13T02:04:29.466Z,75.17
2022-12-13T02:08:35.832Z,67.97
2022-12-13T02:12:41.867Z,66.90
2022-12-13T02:16:55.612Z,63.27
2022-12-13T02:21:18.773Z,53.60
2022-12-13T02:25:45.318Z,57.87
2022-12-13T02:30:27.108Z,63.97
2022-12-13T02:34:37.629Z,57.57
2022-12-13T02:38:50.165Z,61.20
2022-12-13T02:42:59.750Z,64.30
2022-12-13T02:47:06.661Z,64.30
2022-12-13T02:51:18.597Z,58.73
2022-12-13T02:55:27.808Z,57.87
2022-12-13T02:59:35.352Z,64.10
2022-12-13T03:03:48.962Z,64.67
2022-12-13T03:08:01.776Z,68.10
2022-12-13T03:12:32.050Z,68.20
2022-12-13T03:16:40.445Z,66.47
2022-12-13T03:20:48.442Z,66.40
2022-12-13T03:24:52.972Z,56.70
2022-12-13T03:28:56.195Z,64.00
2022-12-13T03:32:58.919Z,55.97
2022-12-13T03:37:01.655Z,56.97
2022-12-13T03:41:08.544Z,57.83
2022-12-13T03:45:11.738Z,54.33
2022-12-13T03:49:17.270Z,50.57
2022-12-13T03:53:22.662Z,50.07
2022-12-13T03:57:37.131Z,48.40
2022-12-13T04:01:39.935Z,51.93
2022-12-13T04:05:43.516Z,51.47
2022-12-13T04:09:46.256Z,54.97
2022-12-13T04:13:50.312Z,51.63
2022-12-13T04:17:53.085Z,51.87
2022-12-13T04:21:56.025Z,48.33
2022-12-13T04:25:59.923Z,47.33
2022-12-13T04:30:04.682Z,47.40
2022-12-13T04:34:07.495Z,42.10
2022-12-13T04:38:10.279Z,52.27
2022-12-13T04:42:13.433Z,52.03
2022-12-13T04:46:17.532Z,47.17
2022-12-13T04:50:20.307Z,54.03
2022-12-13T04:54:24.023Z,53.73
2022-12-13T04:58:28.474Z,49.03
2022-12-13T05:02:32.980Z,50.90
2022-12-13T05:06:35.762Z,48.33
2022-12-13T05:10:38.687Z,47.70
2022-12-13T05:14:41.417Z,46.60
2022-12-13T05:18:45.563Z,47.30
2022-12-13T05:22:48.237Z,55.07
2022-12-13T05:26:51.575Z,43.70
2022-12-13T05:30:55.087Z,48.17
2022-12-13T05:34:59.210Z,46.40
2022-12-13T05:39:01.926Z,50.37
2022-12-13T05:43:04.725Z,47.20
2022-12-13T05:47:25.319Z,58.90
2022-12-13T05:51:29.491Z,57.10
2022-12-13T05:55:32.303Z,51.87
2022-12-13T05:59:35.045Z,53.23
2022-12-13T06:03:38.261Z,53.17
2022-12-13T06:07:43.591Z,54.57
2022-12-13T06:11:46.327Z,51.80
2022-12-13T06:15:49.071Z,45.87
2022-12-13T06:19:51.936Z,47.83
2022-12-13T06:23:56.085Z,46.07
2022-12-13T06:28:00.743Z,46.57
2022-12-13T06:32:04.992Z,43.93
2022-12-13T06:36:08.751Z,47.47
2022-12-13T06:40:14.534Z,44.27
2022-12-13T06:44:18.582Z,41.47
2022-12-13T06:48:21.325Z,41.60
2022-12-13T06:52:24.031Z,43.70
2022-12-13T06:56:28.106Z,38.67
2022-12-13T07:00:36.986Z,43.70
2022-12-13T07:04:43.665Z,38.33
2022-12-13T07:08:51.423Z,42.47
2022-12-13T07:12:55.489Z,48.80
2022-12-13T07:17:03.628Z,44.57
2022-12-13T07:21:07.515Z,40.20
2022-12-13T07:25:27.027Z,44.50
2022-12-13T07:29:32.822Z,38.30
2022-12-13T07:33:36.387Z,41.20
2022-12-13T07:37:39.125Z,36.03
2022-12-13T07:41:41.783Z,44.23
2022-12-13T07:45:46.293Z,40.90
2022-12-13T07:49:49.027Z,43.60
2022-12-13T07:53:51.785Z,43.07
2022-12-13T07:57:54.500Z,49.23
2022-12-13T08:01:58.659Z,43.10
2022-12-13T08:06:07.249Z,49.57
2022-12-13T08:10:10.338Z,43.50
2022-12-13T08:14:13.299Z,42.77
2022-12-13T08:18:17.413Z,46.33
2022-12-13T08:22:24.189Z,48.80
2022-12-13T08:26:27.086Z,45.60
2022-12-13T08:30:29.956Z,43.87
2022-12-13T08:34:34.094Z,44.83
2022-12-13T08:38:37.725Z,51.70
2022-12-13T08:42:40.483Z,49.87
2022-12-13T08:46:44.223Z,48.27
2022-12-13T08:50:48.325Z,47.30
2022-12-13T08:54:51.101Z,47.13
2022-12-13T08:58:53.840Z,51.53
2022-12-13T09:02:58.307Z,48.40
2022-12-13T09:07:03.075Z,47.87
2022-12-13T09:11:11.211Z,51.03
2022-12-13T09:15:23.496Z,54.10
2022-12-13T09:19:27.040Z,46.87
2022-12-13T09:23:31.187Z,45.40
2022-12-13T09:27:39.732Z,46.40
2022-12-13T09:31:43.880Z,51.20
2022-12-13T09:35:54.906Z,52.37
2022-12-13T09:39:59.035Z,44.53
2022-12-13T09:44:32.611Z,42.23
2022-12-13T09:48:48.345Z,50.90
2022-12-13T09:52:51.643Z,46.30
2022-12-13T09:56:57.539Z,53.87
2022-12-13T10:01:01.022Z,43.67
2022-12-13T10:05:22.783Z,47.00
2022-12-13T10:09:26.844Z,46.33
2022-12-13T10:13:41.574Z,49.27
2022-12-13T10:17:55.433Z,49.53
2022-12-13T10:22:01.601Z,55.67
2022-12-13T10:26:23.891Z,51.83
2022-12-13T10:30:29.498Z,46.97
2022-12-13T10:34:39.200Z,56.27
2022-12-13T10:38:44.164Z,53.23
2022-12-13T10:42:46.907Z,51.77
2022-12-13T10:46:54.073Z,48.93
2022-12-13T10:51:02.686Z,53.50
2022-12-13T10:55:22.995Z,43.80
2022-12-13T10:59:32.504Z,45.53
2022-12-13T11:03:36.847Z,46.57
2022-12-13T11:07:39.947Z,41.67
2022-12-13T11:11:44.233Z,43.10
2022-12-13T11:15:48.000Z,47.40
2022-12-13T11:19:55.383Z,43.43
2022-12-13T11:24:02.298Z,39.60
2022-12-13T11:28:26.863Z,39.40
2022-12-13T11:32:43.386Z,44.00
2022-12-13T11:36:52.946Z,44.33
2022-12-13T11:41:00.081Z,44.30
2022-12-13T11:45:13.537Z,47.37
2022-12-13T11:49:35.916Z,43.50
2022-12-13T11:53:50.717Z,42.07
2022-12-13T11:58:01.305Z,41.00
2022-12-13T12:02:16.855Z,40.13
2022-12-13T12:06:23.600Z,41.80
2022-12-13T12:10:33.214Z,42.20
2022-12-13T12:14:42.742Z,42.37
2022-12-13T12:18:45.571Z,47.07
2022-12-13T12:23:00.096Z,42.67
2022-12-13T12:27:25.823Z,43.67
2022-12-13T12:31:34.367Z,45.90
2022-12-13T12:36:03.314Z,38.73
2022-12-13T12:40:52.247Z,42.73
2022-12-13T12:45:27.089Z,35.60
2022-12-13T12:50:10.401Z,42.47
2022-12-13T12:54:39.981Z,38.23
2022-12-13T12:58:51.430Z,41.17
2022-12-13T13:03:01.798Z,35.97
2022-12-13T13:07:22.364Z,42.00
2022-12-13T13:11:29.845Z,36.97
2022-12-13T13:15:55.499Z,36.90
2022-12-13T13:20:17.603Z,38.43
2022-12-13T13:24:23.508Z,39.50
2022-12-13T13:28:26.458Z,43.20
2022-12-13T13:32:31.609Z,43.77
2022-12-13T13:36:52.536Z,38.50
2022-12-13T13:40:55.472Z,38.80
2022-12-13T13:45:22.424Z,37.80
2022-12-13T13:49:25.592Z,37.50
2022-12-13T13:54:22.344Z,39.17
2022-12-13T13:58:57.141Z,39.80
2022-12-13T14:03:47.538Z,35.73
2022-12-13T14:08:28.467Z,36.47
2022-12-13T14:13:11.020Z,34.47
2022-12-13T14:17:51.365Z,36.57
2022-12-13T14:22:23.580Z,34.37
2022-12-13T14:26:41.803Z,35.70
2022-12-13T14:30:47.956Z,35.97
2022-12-13T14:35:25.377Z,42.23
2022-12-13T14:39:30.989Z,40.70
2022-12-13T14:43:35.366Z,38.53
2022-12-13T14:47:41.462Z,40.83
2022-12-13T14:51:44.840Z,36.53
2022-12-13T14:56:04.515Z,41.53
2022-12-13T15:00:24.329Z,37.67
2022-12-13T15:04:30.323Z,41.17
2022-12-13T15:08:38.248Z,38.97
2022-12-13T15:12:43.960Z,38.73
2022-12-13T15:16:50.126Z,37.73
2022-12-13T15:20:55.202Z,41.40
2022-12-13T15:25:02.509Z,39.63
2022-12-13T15:29:12.104Z,39.17
2022-12-13T15:33:20.518Z,44.80
2022-12-13T15:37:29.771Z,41.70
2022-12-13T15:41:37.604Z,49.83
2022-12-13T15:45:46.495Z,44.53
2022-12-13T15:49:53.323Z,42.93
2022-12-13T15:54:08.251Z,42.20
2022-12-13T15:58:25.613Z,42.20
2022-12-13T16:02:30.127Z,48.70
2022-12-13T16:06:34.458Z,46.37
2022-12-13T16:10:37.495Z,42.27
2022-12-13T16:14:49.572Z,44.07
2022-12-13T16:18:56.747Z,40.80
2022-12-13T16:23:00.167Z,39.70
2022-12-13T16:27:12.107Z,39.10
2022-12-13T16:31:18.076Z,41.23
2022-12-13T16:35:22.874Z,44.67
2022-12-13T16:39:26.258Z,45.80
2022-12-13T16:43:34.281Z,41.37
2022-12-13T16:47:44.713Z,41.87
2022-12-13T16:51:53.323Z,43.60
2022-12-13T16:55:59.195Z,43.77
2022-12-13T17:00:02.556Z,45.60
2022-12-13T17:04:11.876Z,44.77
2022-12-13T17:08:19.907Z,41.23
2022-12-13T17:12:25.808Z,41.60
2022-12-13T17:16:34.977Z,40.03
2022-12-13T17:20:39.963Z,46.40
2022-12-13T17:24:45.312Z,46.67
2022-12-13T17:28:49.469Z,42.87
2022-12-13T17:32:54.630Z,41.33
2022-12-13T17:36:57.777Z,42.67
2022-12-13T17:41:02.038Z,44.90
2022-12-13T17:45:05.926Z,41.67
2022-12-13T17:49:09.104Z,47.83
2022-12-13T17:53:12.718Z,50.50
2022-12-13T17:57:17.376Z,49.77
2022-12-13T18:01:23.538Z,56.43
2022-12-13T18:05:26.913Z,54.53
2022-12-13T18:09:29.970Z,55.93
2022-12-13T18:13:34.243Z,60.40
2022-12-13T18:18:09.387Z,59.33
2022-12-13T18:22:01.753Z,55.23
2022-12-13T18:26:07.594Z,53.67
2022-12-13T18:30:13.358Z,54.77
2022-12-13T18:34:16.862Z,49.10
2022-12-13T18:38:19.588Z,56.97
2022-12-13T18:42:22.674Z,53.47
2022-12-13T18:46:27.756Z,52.57
2022-12-13T18:50:30.895Z,47.23
2022-12-13T18:54:33.912Z,45.77
2022-12-13T18:58:37.287Z,50.57
2022-12-13T19:02:42.141Z,43.80
2022-12-13T19:06:45.033Z,47.40
2022-12-13T19:10:48.963Z,42.03
2022-12-13T19:14:54.618Z,43.77
2022-12-13T19:19:00.007Z,45.07
2022-12-13T19:23:03.617Z,46.20
2022-12-13T19:27:07.077Z,41.73
2022-12-13T19:31:12.269Z,43.90
2022-12-13T19:35:17.967Z,39.80
2022-12-13T19:39:20.769Z,41.60
2022-12-13T19:43:24.781Z,46.17
2022-12-13T19:47:28.321Z,45.83
2022-12-13T19:51:39.528Z,41.97
2022-12-13T19:55:48.243Z,46.93
2022-12-13T19:59:51.641Z,47.73
2022-12-13T20:03:55.883Z,46.77
2022-12-13T20:08:00.238Z,45.90
2022-12-13T20:12:03.058Z,45.10
2022-12-13T20:16:07.294Z,44.30
2022-12-13T20:20:11.774Z,53.87
2022-12-13T20:24:16.586Z,51.57
2022-12-13T20:28:19.650Z,49.90
2022-12-13T20:32:22.696Z,50.47
2022-12-13T20:36:27.910Z,47.83
2022-12-13T20:40:32.182Z,50.50
2022-12-13T20:44:35.316Z,47.77
2022-12-13T20:48:41.426Z,54.80
2022-12-13T20:52:50.570Z,59.10
2022-12-13T20:56:55.923Z,50.47
2022-12-13T21:00:59.262Z,56.87
2022-12-13T21:05:03.528Z,52.00
2022-12-13T21:09:08.267Z,46.83
2022-12-13T21:13:12.412Z,48.43
2022-12-13T21:17:15.754Z,56.77
2022-12-13T21:21:19.763Z,49.90
2022-12-13T21:25:22.816Z,43.83
2022-12-13T21:29:27.782Z,41.63
2022-12-13T21:33:30.768Z,50.87
2022-12-13T21:37:33.610Z,45.23
2022-12-13T21:41:36.769Z,40.73
2022-12-13T21:45:41.595Z,45.27
2022-12-13T21:49:48.436Z,41.50
2022-12-13T21:53:53.929Z,37.67
2022-12-13T21:58:14.441Z,40.17
2022-12-13T22:02:20.167Z,34.10
2022-12-13T22:06:23.153Z,37.23
2022-12-13T22:10:26.142Z,39.03
2022-12-13T22:14:29.991Z,37.90
2022-12-13T22:18:34.103Z,37.77
2022-12-13T22:22:39.339Z,35.27
2022-12-13T22:26:42.258Z,34.60
2022-12-13T22:30:45.374Z,37.67
2022-12-13T22:34:49.907Z,40.20
2022-12-13T22:38:53.123Z,43.87
2022-12-13T22:42:55.983Z,40.23
2022-12-13T22:46:58.944Z,38.90
2022-12-13T22:51:09.037Z,36.37
2022-12-13T22:55:12.672Z,41.57
2022-12-13T22:59:15.598Z,36.47
2022-12-13T23:03:18.590Z,40.67
2022-12-13T23:07:22.987Z,33.17
2022-12-13T23:11:44.227Z,34.43
2022-12-13T23:15:49.525Z,36.40
2022-12-13T23:19:53.154Z,35.33
2022-12-13T23:24:00.238Z,35.77
2022-12-13T23:28:03.304Z,31.47
2022-12-13T23:32:06.454Z,34.17
2022-12-13T23:36:12.540Z,33.47
2022-12-13T23:40:17.880Z,37.53
2022-12-13T23:44:20.809Z,35.00
2022-12-13T23:48:27.061Z,32.47
2022-12-13T23:52:30.223Z,32.47
2022-12-13T23:56:34.937Z,34.73
